sensor_id;sensor_type;location;lat;lon;timestamp;temperature;humidity
74534;SHT31;63012;51.096;-115.366;2022-09-09T00:05:04;23.66;43.64
74534;SHT31;63012;51.096;-115.366;2022-09-09T00:13:02;23.71;43.93
74534;SHT31;63012;51.096;-115.366;2022-09-09T00:16:10;23.73;43.98
74534;SHT31;63012;51.096;-115.366;2022-09-09T00:24:42;23.75;43.91
74534;SHT31;63012;51.096;-115.366;2022-09-09T00:27:34;23.77;43.91
74534;SHT31;63012;51.096;-115.366;2022-09-09T00:30:21;23.78;43.90
74534;SHT31;63012;51.096;-115.366;2022-09-09T00:33:08;23.79;43.90
74534;SHT31;63012;51.096;-115.366;2022-09-09T00:35:47;23.79;43.82
74534;SHT31;63012;51.096;-115.366;2022-09-09T00:41:10;23.80;43.80
74534;SHT31;63012;51.096;-115.366;2022-09-09T00:44:00;23.80;43.77
74534;SHT31;63012;51.096;-115.366;2022-09-09T00:47:13;23.80;43.74
74534;SHT31;63012;51.096;-115.366;2022-09-09T00:50:28;23.80;43.61
74534;SHT31;63012;51.096;-115.366;2022-09-09T00:53:15;23.79;43.55
74534;SHT31;63012;51.096;-115.366;2022-09-09T00:55:59;23.78;43.55
74534;SHT31;63012;51.096;-115.366;2022-09-09T00:58:44;23.79;43.55
74534;SHT31;63012;51.096;-115.366;2022-09-09T01:01:21;23.77;43.49
74534;SHT31;63012;51.096;-115.366;2022-09-09T01:06:31;23.77;43.47
74534;SHT31;63012;51.096;-115.366;2022-09-09T01:09:11;23.78;43.43
74534;SHT31;63012;51.096;-115.366;2022-09-09T01:12:26;23.78;43.41
74534;SHT31;63012;51.096;-115.366;2022-09-09T01:15:22;23.77;43.35
74534;SHT31;63012;51.096;-115.366;2022-09-09T01:18:07;23.77;43.30
74534;SHT31;63012;51.096;-115.366;2022-09-09T01:26:21;23.78;43.22
74534;SHT31;63012;51.096;-115.366;2022-09-09T01:28:50;23.77;43.17
74534;SHT31;63012;51.096;-115.366;2022-09-09T01:31:20;23.77;43.09
74534;SHT31;63012;51.096;-115.366;2022-09-09T01:33:54;23.77;43.07
74534;SHT31;63012;51.096;-115.366;2022-09-09T01:36:26;23.77;43.02
74534;SHT31;63012;51.096;-115.366;2022-09-09T01:39:21;23.76;42.99
74534;SHT31;63012;51.096;-115.366;2022-09-09T01:41:48;23.76;42.93
74534;SHT31;63012;51.096;-115.366;2022-09-09T01:44:16;23.75;42.90
74534;SHT31;63012;51.096;-115.366;2022-09-09T01:46:45;23.76;42.90
74534;SHT31;63012;51.096;-115.366;2022-09-09T01:49:13;23.75;42.85
74534;SHT31;63012;51.096;-115.366;2022-09-09T01:51:40;23.74;42.81
74534;SHT31;63012;51.096;-115.366;2022-09-09T01:54:09;23.73;42.79
74534;SHT31;63012;51.096;-115.366;2022-09-09T01:59:48;23.72;42.70
74534;SHT31;63012;51.096;-115.366;2022-09-09T02:02:51;23.70;42.62
74534;SHT31;63012;51.096;-115.366;2022-09-09T02:08:11;23.68;42.63
74534;SHT31;63012;51.096;-115.366;2022-09-09T02:11:11;23.67;42.63
74534;SHT31;63012;51.096;-115.366;2022-09-09T02:13:40;23.66;42.60
74534;SHT31;63012;51.096;-115.366;2022-09-09T02:16:13;23.66;42.60
74534;SHT31;63012;51.096;-115.366;2022-09-09T02:19:14;23.65;42.56
74534;SHT31;63012;51.096;-115.366;2022-09-09T02:21:53;23.65;42.54
74534;SHT31;63012;51.096;-115.366;2022-09-09T02:24:29;23.64;42.53
74534;SHT31;63012;51.096;-115.366;2022-09-09T02:27:02;23.64;42.55
74534;SHT31;63012;51.096;-115.366;2022-09-09T02:29:35;23.64;42.57
74534;SHT31;63012;51.096;-115.366;2022-09-09T02:32:11;23.64;42.58
74534;SHT31;63012;51.096;-115.366;2022-09-09T02:34:53;23.64;42.59
74534;SHT31;63012;51.096;-115.366;2022-09-09T02:37:34;23.64;42.58
74534;SHT31;63012;51.096;-115.366;2022-09-09T02:40:12;23.63;42.60
74534;SHT31;63012;51.096;-115.366;2022-09-09T02:42:45;23.62;42.58
74534;SHT31;63012;51.096;-115.366;2022-09-09T02:45:24;23.61;42.55
74534;SHT31;63012;51.096;-115.366;2022-09-09T02:48:51;23.62;42.56
74534;SHT31;63012;51.096;-115.366;2022-09-09T02:51:32;23.60;42.55
74534;SHT31;63012;51.096;-115.366;2022-09-09T02:54:34;23.58;42.51
74534;SHT31;63012;51.096;-115.366;2022-09-09T02:57:22;23.57;42.58
74534;SHT31;63012;51.096;-115.366;2022-09-09T02:59:56;23.56;42.57
74534;SHT31;63012;51.096;-115.366;2022-09-09T03:02:25;23.55;42.57
74534;SHT31;63012;51.096;-115.366;2022-09-09T03:04:52;23.54;42.59
74534;SHT31;63012;51.096;-115.366;2022-09-09T03:07:20;23.52;42.59
74534;SHT31;63012;51.096;-115.366;2022-09-09T03:09:47;23.51;42.60
74534;SHT31;63012;51.096;-115.366;2022-09-09T03:12:15;23.49;42.60
74534;SHT31;63012;51.096;-115.366;2022-09-09T03:14:45;23.49;42.60
74534;SHT31;63012;51.096;-115.366;2022-09-09T03:17:12;23.48;42.63
74534;SHT31;63012;51.096;-115.366;2022-09-09T03:19:39;23.46;42.64
74534;SHT31;63012;51.096;-115.366;2022-09-09T03:22:09;23.45;42.67
74534;SHT31;63012;51.096;-115.366;2022-09-09T03:24:36;23.44;42.68
74534;SHT31;63012;51.096;-115.366;2022-09-09T03:27:07;23.43;42.70
74534;SHT31;63012;51.096;-115.366;2022-09-09T03:29:34;23.41;42.71
74534;SHT31;63012;51.096;-115.366;2022-09-09T03:32:11;23.40;42.70
74534;SHT31;63012;51.096;-115.366;2022-09-09T03:34:38;23.38;42.69
74534;SHT31;63012;51.096;-115.366;2022-09-09T03:37:09;23.36;42.71
74534;SHT31;63012;51.096;-115.366;2022-09-09T03:39:36;23.36;42.73
74534;SHT31;63012;51.096;-115.366;2022-09-09T03:42:04;23.34;42.77
74534;SHT31;63012;51.096;-115.366;2022-09-09T03:44:31;23.33;42.77
74534;SHT31;63012;51.096;-115.366;2022-09-09T03:46:58;23.32;42.79
74534;SHT31;63012;51.096;-115.366;2022-09-09T03:49:26;23.31;42.79
74534;SHT31;63012;51.096;-115.366;2022-09-09T03:51:59;23.28;42.80
74534;SHT31;63012;51.096;-115.366;2022-09-09T03:54:27;23.28;42.80
74534;SHT31;63012;51.096;-115.366;2022-09-09T03:56:54;23.26;42.80
74534;SHT31;63012;51.096;-115.366;2022-09-09T03:59:27;23.24;42.81
74534;SHT31;63012;51.096;-115.366;2022-09-09T04:01:57;23.23;42.83
74534;SHT31;63012;51.096;-115.366;2022-09-09T04:04:39;23.21;42.86
74534;SHT31;63012;51.096;-115.366;2022-09-09T04:07:07;23.20;42.88
74534;SHT31;63012;51.096;-115.366;2022-09-09T04:09:42;23.18;42.87
74534;SHT31;63012;51.096;-115.366;2022-09-09T04:12:10;23.17;42.90
74534;SHT31;63012;51.096;-115.366;2022-09-09T04:14:46;23.15;42.91
74534;SHT31;63012;51.096;-115.366;2022-09-09T04:17:13;23.14;42.93
74534;SHT31;63012;51.096;-115.366;2022-09-09T04:19:49;23.12;42.98
74534;SHT31;63012;51.096;-115.366;2022-09-09T04:22:17;23.11;42.98
74534;SHT31;63012;51.096;-115.366;2022-09-09T04:24:46;23.10;43.00
74534;SHT31;63012;51.096;-115.366;2022-09-09T04:27:13;23.09;43.00
74534;SHT31;63012;51.096;-115.366;2022-09-09T04:29:50;23.08;43.00
74534;SHT31;63012;51.096;-115.366;2022-09-09T04:32:26;23.07;43.00
74534;SHT31;63012;51.096;-115.366;2022-09-09T04:34:53;23.04;42.99
74534;SHT31;63012;51.096;-115.366;2022-09-09T04:37:27;23.03;43.01
74534;SHT31;63012;51.096;-115.366;2022-09-09T04:39:57;23.02;43.00
74534;SHT31;63012;51.096;-115.366;2022-09-09T04:42:46;23.01;43.02
74534;SHT31;63012;51.096;-115.366;2022-09-09T04:45:15;22.99;43.04
74534;SHT31;63012;51.096;-115.366;2022-09-09T04:47:43;22.97;43.06
74534;SHT31;63012;51.096;-115.366;2022-09-09T04:50:11;22.95;43.09
74534;SHT31;63012;51.096;-115.366;2022-09-09T04:52:47;22.95;43.10
74534;SHT31;63012;51.096;-115.366;2022-09-09T04:55:15;22.93;43.10
74534;SHT31;63012;51.096;-115.366;2022-09-09T04:57:42;22.91;43.08
74534;SHT31;63012;51.096;-115.366;2022-09-09T05:00:09;22.91;43.10
74534;SHT31;63012;51.096;-115.366;2022-09-09T05:02:41;22.90;43.10
74534;SHT31;63012;51.096;-115.366;2022-09-09T05:05:11;22.89;43.12
74534;SHT31;63012;51.096;-115.366;2022-09-09T05:07:41;22.88;43.15
74534;SHT31;63012;51.096;-115.366;2022-09-09T05:10:17;22.86;43.20
74534;SHT31;63012;51.096;-115.366;2022-09-09T05:13:10;22.83;43.20
74534;SHT31;63012;51.096;-115.366;2022-09-09T05:15:40;22.82;43.21
74534;SHT31;63012;51.096;-115.366;2022-09-09T05:18:18;22.80;43.21
74534;SHT31;63012;51.096;-115.366;2022-09-09T05:20:49;22.80;43.21
74534;SHT31;63012;51.096;-115.366;2022-09-09T05:23:24;22.79;43.26
74534;SHT31;63012;51.096;-115.366;2022-09-09T05:25:57;22.76;43.29
74534;SHT31;63012;51.096;-115.366;2022-09-09T05:28:33;22.76;43.29
74534;SHT31;63012;51.096;-115.366;2022-09-09T05:31:04;22.75;43.27
74534;SHT31;63012;51.096;-115.366;2022-09-09T05:33:55;22.74;43.29
74534;SHT31;63012;51.096;-115.366;2022-09-09T05:36:27;22.71;43.30
74534;SHT31;63012;51.096;-115.366;2022-09-09T05:38:56;22.70;43.30
74534;SHT31;63012;51.096;-115.366;2022-09-09T05:41:26;22.69;43.30
74534;SHT31;63012;51.096;-115.366;2022-09-09T05:44:00;22.68;43.30
74534;SHT31;63012;51.096;-115.366;2022-09-09T05:46:52;22.66;43.31
74534;SHT31;63012;51.096;-115.366;2022-09-09T05:49:19;22.65;43.32
74534;SHT31;63012;51.096;-115.366;2022-09-09T05:51:57;22.64;43.35
74534;SHT31;63012;51.096;-115.366;2022-09-09T05:54:45;22.61;43.40
74534;SHT31;63012;51.096;-115.366;2022-09-09T05:57:12;22.60;43.39
74534;SHT31;63012;51.096;-115.366;2022-09-09T05:59:38;22.59;43.40
74534;SHT31;63012;51.096;-115.366;2022-09-09T06:02:16;22.57;43.41
74534;SHT31;63012;51.096;-115.366;2022-09-09T06:04:43;22.57;43.40
74534;SHT31;63012;51.096;-115.366;2022-09-09T06:07:30;22.54;43.41
74534;SHT31;63012;51.096;-115.366;2022-09-09T06:09:57;22.53;43.43
74534;SHT31;63012;51.096;-115.366;2022-09-09T06:12:34;22.52;43.48
74534;SHT31;63012;51.096;-115.366;2022-09-09T06:15:17;22.51;43.49
74534;SHT31;63012;51.096;-115.366;2022-09-09T06:17:59;22.50;43.49
74534;SHT31;63012;51.096;-115.366;2022-09-09T06:20:57;22.49;43.49
74534;SHT31;63012;51.096;-115.366;2022-09-09T06:23:38;22.48;43.50
74534;SHT31;63012;51.096;-115.366;2022-09-09T06:26:22;22.47;43.51
74534;SHT31;63012;51.096;-115.366;2022-09-09T06:31:37;22.45;43.52
74534;SHT31;63012;51.096;-115.366;2022-09-09T06:34:08;22.43;43.51
74534;SHT31;63012;51.096;-115.366;2022-09-09T06:36:36;22.42;43.52
74534;SHT31;63012;51.096;-115.366;2022-09-09T06:39:07;22.41;43.55
74534;SHT31;63012;51.096;-115.366;2022-09-09T06:41:57;22.39;43.58
74534;SHT31;63012;51.096;-115.366;2022-09-09T06:44:24;22.38;43.60
74534;SHT31;63012;51.096;-115.366;2022-09-09T06:47:00;22.37;43.59
74534;SHT31;63012;51.096;-115.366;2022-09-09T06:49:57;22.35;43.60
74534;SHT31;63012;51.096;-115.366;2022-09-09T06:52:24;22.34;43.60
74534;SHT31;63012;51.096;-115.366;2022-09-09T06:55:03;22.32;43.60
74534;SHT31;63012;51.096;-115.366;2022-09-09T06:57:34;22.31;43.61
74534;SHT31;63012;51.096;-115.366;2022-09-09T07:00:04;22.29;43.67
74534;SHT31;63012;51.096;-115.366;2022-09-09T07:02:32;22.28;43.65
74534;SHT31;63012;51.096;-115.366;2022-09-09T07:05:09;22.26;43.68
74534;SHT31;63012;51.096;-115.366;2022-09-09T07:07:39;22.25;43.70
74534;SHT31;63012;51.096;-115.366;2022-09-09T07:13:03;22.23;43.69
74534;SHT31;63012;51.096;-115.366;2022-09-09T07:15:40;22.23;43.69
74534;SHT31;63012;51.096;-115.366;2022-09-09T07:18:28;22.22;43.70
74534;SHT31;63012;51.096;-115.366;2022-09-09T07:21:04;22.21;43.70
74534;SHT31;63012;51.096;-115.366;2022-09-09T07:23:35;22.20;43.70
74534;SHT31;63012;51.096;-115.366;2022-09-09T07:26:18;22.18;43.70
74534;SHT31;63012;51.096;-115.366;2022-09-09T07:28:52;22.18;43.71
74534;SHT31;63012;51.096;-115.366;2022-09-09T07:31:25;22.17;43.72
74534;SHT31;63012;51.096;-115.366;2022-09-09T07:34:02;22.16;43.71
74534;SHT31;63012;51.096;-115.366;2022-09-09T07:36:37;22.13;43.72
74534;SHT31;63012;51.096;-115.366;2022-09-09T07:39:13;22.11;43.75
74534;SHT31;63012;51.096;-115.366;2022-09-09T07:42:04;22.10;43.80
74534;SHT31;63012;51.096;-115.366;2022-09-09T07:44:34;22.08;43.80
74534;SHT31;63012;51.096;-115.366;2022-09-09T07:47:09;22.06;43.80
74534;SHT31;63012;51.096;-115.366;2022-09-09T07:49:45;22.05;43.82
74534;SHT31;63012;51.096;-115.366;2022-09-09T07:52:15;22.03;43.82
74534;SHT31;63012;51.096;-115.366;2022-09-09T07:54:42;22.02;43.80
74534;SHT31;63012;51.096;-115.366;2022-09-09T07:57:18;22.01;43.84
74534;SHT31;63012;51.096;-115.366;2022-09-09T07:59:55;22.00;43.86
74534;SHT31;63012;51.096;-115.366;2022-09-09T08:02:46;21.99;43.87
74534;SHT31;63012;51.096;-115.366;2022-09-09T08:05:13;21.98;43.89
74534;SHT31;63012;51.096;-115.366;2022-09-09T08:07:43;21.96;43.89
74534;SHT31;63012;51.096;-115.366;2022-09-09T08:10:32;21.96;43.89
74534;SHT31;63012;51.096;-115.366;2022-09-09T08:13:10;21.95;43.90
74534;SHT31;63012;51.096;-115.366;2022-09-09T08:15:42;21.92;43.89
74534;SHT31;63012;51.096;-115.366;2022-09-09T08:18:12;21.92;43.90
74534;SHT31;63012;51.096;-115.366;2022-09-09T08:21:07;21.92;43.86
74534;SHT31;63012;51.096;-115.366;2022-09-09T08:23:42;21.91;43.85
74534;SHT31;63012;51.096;-115.366;2022-09-09T08:26:40;21.91;43.89
74534;SHT31;63012;51.096;-115.366;2022-09-09T08:29:32;21.89;43.82
74534;SHT31;63012;51.096;-115.366;2022-09-09T08:31:59;21.90;43.87
74534;SHT31;63012;51.096;-115.366;2022-09-09T08:34:37;21.87;43.90
74534;SHT31;63012;51.096;-115.366;2022-09-09T08:37:14;21.86;43.90
74534;SHT31;63012;51.096;-115.366;2022-09-09T08:39:50;21.84;43.90
74534;SHT31;63012;51.096;-115.366;2022-09-09T08:42:35;21.82;43.91
74534;SHT31;63012;51.096;-115.366;2022-09-09T08:45:19;21.81;43.92
74534;SHT31;63012;51.096;-115.366;2022-09-09T08:48:37;21.79;43.93
74534;SHT31;63012;51.096;-115.366;2022-09-09T08:51:29;21.77;43.95
74534;SHT31;63012;51.096;-115.366;2022-09-09T08:54:20;21.75;43.96
74534;SHT31;63012;51.096;-115.366;2022-09-09T08:59:33;21.74;43.99
74534;SHT31;63012;51.096;-115.366;2022-09-09T09:05:36;21.71;43.98
74534;SHT31;63012;51.096;-115.366;2022-09-09T09:11:20;21.68;43.98
74534;SHT31;63012;51.096;-115.366;2022-09-09T09:14:13;21.68;43.94
74534;SHT31;63012;51.096;-115.366;2022-09-09T09:16:54;21.67;43.94
74534;SHT31;63012;51.096;-115.366;2022-09-09T09:19:45;21.66;43.97
74534;SHT31;63012;51.096;-115.366;2022-09-09T09:25:17;21.64;43.97
74534;SHT31;63012;51.096;-115.366;2022-09-09T09:28:25;21.63;43.95
74534;SHT31;63012;51.096;-115.366;2022-09-09T09:31:01;21.61;43.96
74534;SHT31;63012;51.096;-115.366;2022-09-09T09:36:21;21.59;43.96
74534;SHT31;63012;51.096;-115.366;2022-09-09T09:39:09;21.59;43.98
74534;SHT31;63012;51.096;-115.366;2022-09-09T09:41:56;21.57;43.99
74534;SHT31;63012;51.096;-115.366;2022-09-09T09:47:29;21.55;43.98
74534;SHT31;63012;51.096;-115.366;2022-09-09T09:49:58;21.55;43.99
74534;SHT31;63012;51.096;-115.366;2022-09-09T09:52:33;21.54;44.00
74534;SHT31;63012;51.096;-115.366;2022-09-09T09:55:24;21.52;43.99
74534;SHT31;63012;51.096;-115.366;2022-09-09T09:58:14;21.52;43.98
74534;SHT31;63012;51.096;-115.366;2022-09-09T10:07:24;21.46;44.00
74534;SHT31;63012;51.096;-115.366;2022-09-09T10:10:02;21.44;44.00
74534;SHT31;63012;51.096;-115.366;2022-09-09T10:23:15;21.38;44.04
74534;SHT31;63012;51.096;-115.366;2022-09-09T10:45:33;21.28;44.12
74534;SHT31;63012;51.096;-115.366;2022-09-09T10:56:05;21.23;44.19
74534;SHT31;63012;51.096;-115.366;2022-09-09T11:08:29;21.17;44.20
74534;SHT31;63012;51.096;-115.366;2022-09-09T11:20:11;21.13;44.24
74534;SHT31;63012;51.096;-115.366;2022-09-09T11:26:28;21.12;44.27
74534;SHT31;63012;51.096;-115.366;2022-09-09T11:39:06;21.08;44.30
74534;SHT31;63012;51.096;-115.366;2022-09-09T11:44:52;21.04;44.31
74534;SHT31;63012;51.096;-115.366;2022-09-09T11:47:31;21.03;44.30
74534;SHT31;63012;51.096;-115.366;2022-09-09T11:53:20;21.00;44.42
74534;SHT31;63012;51.096;-115.366;2022-09-09T11:56:10;20.99;44.48
74534;SHT31;63012;51.096;-115.366;2022-09-09T11:59:16;20.98;44.51
74534;SHT31;63012;51.096;-115.366;2022-09-09T12:08:00;20.95;44.64
74534;SHT31;63012;51.096;-115.366;2022-09-09T12:13:52;20.94;44.70
74534;SHT31;63012;51.096;-115.366;2022-09-09T12:16:45;20.94;44.73
74534;SHT31;63012;51.096;-115.366;2022-09-09T12:19:21;20.94;44.78
74534;SHT31;63012;51.096;-115.366;2022-09-09T12:32:27;20.93;44.80
74534;SHT31;63012;51.096;-115.366;2022-09-09T12:38:09;20.92;44.79
74534;SHT31;63012;51.096;-115.366;2022-09-09T12:40:57;20.93;44.77
74534;SHT31;63012;51.096;-115.366;2022-09-09T12:43:26;20.93;44.79
74534;SHT31;63012;51.096;-115.366;2022-09-09T12:45:56;20.92;44.84
74534;SHT31;63012;51.096;-115.366;2022-09-09T12:48:41;20.93;44.89
74534;SHT31;63012;51.096;-115.366;2022-09-09T12:51:30;20.93;44.87
74534;SHT31;63012;51.096;-115.366;2022-09-09T12:54:18;20.94;44.89
74534;SHT31;63012;51.096;-115.366;2022-09-09T12:57:18;20.94;44.89
74534;SHT31;63012;51.096;-115.366;2022-09-09T13:00:14;20.94;44.89
74534;SHT31;63012;51.096;-115.366;2022-09-09T13:02:58;20.93;44.90
74534;SHT31;63012;51.096;-115.366;2022-09-09T13:06:11;20.93;44.96
74534;SHT31;63012;51.096;-115.366;2022-09-09T13:09:11;20.92;44.99
74534;SHT31;63012;51.096;-115.366;2022-09-09T13:11:50;20.92;45.00
74534;SHT31;63012;51.096;-115.366;2022-09-09T13:17:56;20.93;45.07
74534;SHT31;63012;51.096;-115.366;2022-09-09T13:20:45;20.94;45.11
74534;SHT31;63012;51.096;-115.366;2022-09-09T13:23:18;20.95;45.16
74534;SHT31;63012;51.096;-115.366;2022-09-09T13:25:58;20.96;45.21
74534;SHT31;63012;51.096;-115.366;2022-09-09T13:28:36;20.96;45.25
74534;SHT31;63012;51.096;-115.366;2022-09-09T13:31:23;20.97;45.31
74534;SHT31;63012;51.096;-115.366;2022-09-09T13:33:59;20.98;45.36
74534;SHT31;63012;51.096;-115.366;2022-09-09T13:37:15;20.98;45.42
74534;SHT31;63012;51.096;-115.366;2022-09-09T13:40:21;20.99;45.48
74534;SHT31;63012;51.096;-115.366;2022-09-09T13:42:59;20.99;45.48
74534;SHT31;63012;51.096;-115.366;2022-09-09T13:49:49;21.01;45.52
74534;SHT31;63012;51.096;-115.366;2022-09-09T13:52:20;21.00;45.57
74534;SHT31;63012;51.096;-115.366;2022-09-09T13:55:02;21.00;45.59
74534;SHT31;63012;51.096;-115.366;2022-09-09T13:57:38;21.02;45.57
74534;SHT31;63012;51.096;-115.366;2022-09-09T14:00:16;21.03;45.60
74534;SHT31;63012;51.096;-115.366;2022-09-09T14:03:26;21.04;45.60
74534;SHT31;63012;51.096;-115.366;2022-09-09T14:08:59;21.04;45.61
74534;SHT31;63012;51.096;-115.366;2022-09-09T14:11:47;21.05;45.61
74534;SHT31;63012;51.096;-115.366;2022-09-09T14:14:22;21.05;45.64
74534;SHT31;63012;51.096;-115.366;2022-09-09T14:16:58;21.05;45.66
74534;SHT31;63012;51.096;-115.366;2022-09-09T14:19:37;21.05;45.65
74534;SHT31;63012;51.096;-115.366;2022-09-09T14:22:49;21.06;45.61
74534;SHT31;63012;51.096;-115.366;2022-09-09T14:25:36;21.06;45.60
74534;SHT31;63012;51.096;-115.366;2022-09-09T14:28:08;21.06;45.59
74534;SHT31;63012;51.096;-115.366;2022-09-09T14:30:59;21.06;45.60
74534;SHT31;63012;51.096;-115.366;2022-09-09T14:33:31;21.06;45.59
74534;SHT31;63012;51.096;-115.366;2022-09-09T14:39:34;21.07;45.57
74534;SHT31;63012;51.096;-115.366;2022-09-09T14:42:00;21.07;45.54
74534;SHT31;63012;51.096;-115.366;2022-09-09T14:44:27;21.07;45.53
74534;SHT31;63012;51.096;-115.366;2022-09-09T14:50:06;21.08;45.50
74534;SHT31;63012;51.096;-115.366;2022-09-09T14:53:02;21.07;45.50
74534;SHT31;63012;51.096;-115.366;2022-09-09T14:58:43;21.07;45.49
74534;SHT31;63012;51.096;-115.366;2022-09-09T15:01:20;21.06;45.49
74534;SHT31;63012;51.096;-115.366;2022-09-09T15:03:58;21.07;45.44
74534;SHT31;63012;51.096;-115.366;2022-09-09T15:06:34;21.07;45.46
74534;SHT31;63012;51.096;-115.366;2022-09-09T15:09:31;21.06;45.41
74534;SHT31;63012;51.096;-115.366;2022-09-09T15:12:34;21.06;45.45
74534;SHT31;63012;51.096;-115.366;2022-09-09T15:15:22;21.06;45.43
74534;SHT31;63012;51.096;-115.366;2022-09-09T15:21:21;21.03;45.43
74534;SHT31;63012;51.096;-115.366;2022-09-09T15:27:17;21.01;45.49
74534;SHT31;63012;51.096;-115.366;2022-09-09T15:30:05;21.00;45.50
74534;SHT31;63012;51.096;-115.366;2022-09-09T15:32:48;20.99;45.50
74534;SHT31;63012;51.096;-115.366;2022-09-09T15:35:41;20.98;45.50
74534;SHT31;63012;51.096;-115.366;2022-09-09T15:38:18;20.97;45.55
74534;SHT31;63012;51.096;-115.366;2022-09-09T15:41:09;20.96;45.59
74534;SHT31;63012;51.096;-115.366;2022-09-09T15:43:36;20.95;45.59
74534;SHT31;63012;51.096;-115.366;2022-09-09T15:46:49;20.94;45.60
74534;SHT31;63012;51.096;-115.366;2022-09-09T15:49:05;20.93;45.60
74534;SHT31;63012;51.096;-115.366;2022-09-09T15:52:01;20.92;45.68
74534;SHT31;63012;51.096;-115.366;2022-09-09T15:54:38;20.92;45.75
74534;SHT31;63012;51.096;-115.366;2022-09-09T15:57:25;20.92;45.71
74534;SHT31;63012;51.096;-115.366;2022-09-09T16:00:01;20.92;45.70
74534;SHT31;63012;51.096;-115.366;2022-09-09T16:02:50;20.92;45.70
74534;SHT31;63012;51.096;-115.366;2022-09-09T16:05:27;20.92;45.69
74534;SHT31;63012;51.096;-115.366;2022-09-09T16:14:09;20.88;45.85
74534;SHT31;63012;51.096;-115.366;2022-09-09T16:17:12;20.87;45.99
74534;SHT31;63012;51.096;-115.366;2022-09-09T16:19:56;20.86;46.17
74534;SHT31;63012;51.096;-115.366;2022-09-09T16:22:48;20.84;46.11
74534;SHT31;63012;51.096;-115.366;2022-09-09T16:25:26;20.83;46.13
74534;SHT31;63012;51.096;-115.366;2022-09-09T16:30:57;20.81;46.29
74534;SHT31;63012;51.096;-115.366;2022-09-09T16:33:34;20.80;46.37
74534;SHT31;63012;51.096;-115.366;2022-09-09T16:36:09;20.79;46.50
74534;SHT31;63012;51.096;-115.366;2022-09-09T16:39:03;20.77;46.55
74534;SHT31;63012;51.096;-115.366;2022-09-09T16:41:41;20.77;46.65
74534;SHT31;63012;51.096;-115.366;2022-09-09T16:44:23;20.77;46.68
74534;SHT31;63012;51.096;-115.366;2022-09-09T16:47:16;20.76;46.76
74534;SHT31;63012;51.096;-115.366;2022-09-09T16:49:52;20.74;46.81
74534;SHT31;63012;51.096;-115.366;2022-09-09T16:52:38;20.75;46.82
74534;SHT31;63012;51.096;-115.366;2022-09-09T16:55:21;20.75;46.88
74534;SHT31;63012;51.096;-115.366;2022-09-09T17:01:01;20.74;46.90
74534;SHT31;63012;51.096;-115.366;2022-09-09T17:03:43;20.73;46.90
74534;SHT31;63012;51.096;-115.366;2022-09-09T17:06:53;20.72;46.90
74534;SHT31;63012;51.096;-115.366;2022-09-09T17:09:34;20.72;46.90
74534;SHT31;63012;51.096;-115.366;2022-09-09T17:12:05;20.72;46.90
74534;SHT31;63012;51.096;-115.366;2022-09-09T17:14:58;20.71;46.96
74534;SHT31;63012;51.096;-115.366;2022-09-09T17:17:58;20.72;47.00
74534;SHT31;63012;51.096;-115.366;2022-09-09T17:20:34;20.72;46.99
74534;SHT31;63012;51.096;-115.366;2022-09-09T17:26:28;20.70;47.00
74534;SHT31;63012;51.096;-115.366;2022-09-09T17:29:00;20.71;47.02
74534;SHT31;63012;51.096;-115.366;2022-09-09T17:32:02;20.71;47.06
74534;SHT31;63012;51.096;-115.366;2022-09-09T17:34:54;20.70;47.03
74534;SHT31;63012;51.096;-115.366;2022-09-09T17:37:41;20.69;47.10
74534;SHT31;63012;51.096;-115.366;2022-09-09T17:40:27;20.69;47.15
74534;SHT31;63012;51.096;-115.366;2022-09-09T17:42:55;20.70;47.13
74534;SHT31;63012;51.096;-115.366;2022-09-09T17:46:29;20.70;47.10
74534;SHT31;63012;51.096;-115.366;2022-09-09T17:49:00;20.70;47.12
74534;SHT31;63012;51.096;-115.366;2022-09-09T17:54:34;20.71;47.11
74534;SHT31;63012;51.096;-115.366;2022-09-09T17:57:28;20.69;47.20
74534;SHT31;63012;51.096;-115.366;2022-09-09T18:03:58;20.68;47.27
74534;SHT31;63012;51.096;-115.366;2022-09-09T18:06:28;20.67;47.39
74534;SHT31;63012;51.096;-115.366;2022-09-09T18:09:05;20.67;47.44
74534;SHT31;63012;51.096;-115.366;2022-09-09T18:15:58;20.70;47.49
74534;SHT31;63012;51.096;-115.366;2022-09-09T18:18:21;20.72;47.46
74534;SHT31;63012;51.096;-115.366;2022-09-09T18:21:18;20.72;47.50
74534;SHT31;63012;51.096;-115.366;2022-09-09T18:24:01;20.74;47.47
74534;SHT31;63012;51.096;-115.366;2022-09-09T18:26:52;20.76;47.50
74534;SHT31;63012;51.096;-115.366;2022-09-09T18:33:12;20.78;47.53
74534;SHT31;63012;51.096;-115.366;2022-09-09T18:35:57;20.80;47.50
74534;SHT31;63012;51.096;-115.366;2022-09-09T18:41:29;20.83;47.45
74534;SHT31;63012;51.096;-115.366;2022-09-09T18:44:49;20.85;47.42
74534;SHT31;63012;51.096;-115.366;2022-09-09T18:47:46;20.89;47.38
74534;SHT31;63012;51.096;-115.366;2022-09-09T18:50:16;20.92;47.31
74534;SHT31;63012;51.096;-115.366;2022-09-09T18:53:18;21.02;47.21
74534;SHT31;63012;51.096;-115.366;2022-09-09T18:56:00;21.10;47.02
74534;SHT31;63012;51.096;-115.366;2022-09-09T18:59:09;21.17;46.92
74534;SHT31;63012;51.096;-115.366;2022-09-09T19:02:00;21.25;46.77
74534;SHT31;63012;51.096;-115.366;2022-09-09T19:04:56;21.30;46.66
74534;SHT31;63012;51.096;-115.366;2022-09-09T19:08:03;21.34;46.54
74534;SHT31;63012;51.096;-115.366;2022-09-09T19:10:35;21.38;46.49
74534;SHT31;63012;51.096;-115.366;2022-09-09T19:13:02;21.47;46.36
74534;SHT31;63012;51.096;-115.366;2022-09-09T19:15:29;21.58;46.19
74534;SHT31;63012;51.096;-115.366;2022-09-09T19:18:07;21.69;46.03
74534;SHT31;63012;51.096;-115.366;2022-09-09T19:20:34;21.76;45.86
74534;SHT31;63012;51.096;-115.366;2022-09-09T19:23:32;21.84;45.71
74534;SHT31;63012;51.096;-115.366;2022-09-09T19:26:04;21.91;45.55
74534;SHT31;63012;51.096;-115.366;2022-09-09T19:29:08;21.96;45.43
74534;SHT31;63012;51.096;-115.366;2022-09-09T19:31:44;21.99;45.34
74534;SHT31;63012;51.096;-115.366;2022-09-09T19:34:31;21.98;45.30
74534;SHT31;63012;51.096;-115.366;2022-09-09T19:36:58;21.98;45.30
74534;SHT31;63012;51.096;-115.366;2022-09-09T19:39:35;21.98;45.28
74534;SHT31;63012;51.096;-115.366;2022-09-09T19:42:08;21.99;45.23
74534;SHT31;63012;51.096;-115.366;2022-09-09T19:44:39;21.98;45.23
74534;SHT31;63012;51.096;-115.366;2022-09-09T19:47:12;21.97;45.21